sensor_id;sensor_type;location;lat;lon;timestamp;temperature;humidity
20610;DHT22;10463;52.378;9.688;2023-03-01T00:01:50;22.00;21.60
20610;DHT22;10463;52.378;9.688;2023-03-01T00:04:35;22.10;21.70
20610;DHT22;10463;52.378;9.688;2023-03-01T00:07:20;22.10;21.70
20610;DHT22;10463;52.378;9.688;2023-03-01T00:10:06;22.00;21.70
20610;DHT22;10463;52.378;9.688;2023-03-01T00:12:51;22.00;21.70
20610;DHT22;10463;52.378;9.688;2023-03-01T00:15:40;22.00;21.70
20610;DHT22;10463;52.378;9.688;2023-03-01T00:18:26;22.00;21.70
20610;DHT22;10463;52.378;9.688;2023-03-01T00:21:10;22.00;21.70
20610;DHT22;10463;52.378;9.688;2023-03-01T00:23:55;22.00;21.70
20610;DHT22;10463;52.378;9.688;2023-03-01T00:26:40;22.00;21.70
20610;DHT22;10463;52.378;9.688;2023-03-01T00:29:25;21.90;21.60
20610;DHT22;10463;52.378;9.688;2023-03-01T00:32:11;21.90;21.60
20610;DHT22;10463;52.378;9.688;2023-03-01T00:34:56;21.90;21.60
20610;DHT22;10463;52.378;9.688;2023-03-01T00:37:41;21.90;21.60
20610;DHT22;10463;52.378;9.688;2023-03-01T00:40:27;21.90;21.60
20610;DHT22;10463;52.378;9.688;2023-03-01T00:43:12;21.90;21.60
20610;DHT22;10463;52.378;9.688;2023-03-01T00:46:00;21.90;21.60
20610;DHT22;10463;52.378;9.688;2023-03-01T00:48:47;21.90;21.60
20610;DHT22;10463;52.378;9.688;2023-03-01T00:51:33;21.90;21.60
20610;DHT22;10463;52.378;9.688;2023-03-01T00:54:18;21.90;21.70
20610;DHT22;10463;52.378;9.688;2023-03-01T00:57:02;21.90;21.60
20610;DHT22;10463;52.378;9.688;2023-03-01T00:59:47;21.80;21.60
20610;DHT22;10463;52.378;9.688;2023-03-01T01:02:33;21.80;21.60
20610;DHT22;10463;52.378;9.688;2023-03-01T01:05:20;21.80;21.60
20610;DHT22;10463;52.378;9.688;2023-03-01T01:08:05;21.80;21.60
20610;DHT22;10463;52.378;9.688;2023-03-01T01:10:50;21.80;21.60
20610;DHT22;10463;52.378;9.688;2023-03-01T01:13:35;21.80;21.60
20610;DHT22;10463;52.378;9.688;2023-03-01T01:16:23;21.80;21.60
20610;DHT22;10463;52.378;9.688;2023-03-01T01:19:10;21.80;21.60
20610;DHT22;10463;52.378;9.688;2023-03-01T01:21:56;21.80;21.60
20610;DHT22;10463;52.378;9.688;2023-03-01T01:24:41;21.70;21.60
20610;DHT22;10463;52.378;9.688;2023-03-01T01:27:26;21.70;21.50
20610;DHT22;10463;52.378;9.688;2023-03-01T01:30:12;21.70;21.60
20610;DHT22;10463;52.378;9.688;2023-03-01T01:32:57;21.70;21.60
20610;DHT22;10463;52.378;9.688;2023-03-01T01:35:45;21.70;21.60
20610;DHT22;10463;52.378;9.688;2023-03-01T01:38:31;21.70;21.60
20610;DHT22;10463;52.378;9.688;2023-03-01T01:41:16;21.70;21.60
20610;DHT22;10463;52.378;9.688;2023-03-01T01:44:17;21.70;21.60
20610;DHT22;10463;52.378;9.688;2023-03-01T01:47:06;21.70;21.60
20610;DHT22;10463;52.378;9.688;2023-03-01T01:49:55;21.70;21.60
20610;DHT22;10463;52.378;9.688;2023-03-01T01:52:40;21.70;21.60
20610;DHT22;10463;52.378;9.688;2023-03-01T01:55:27;21.70;21.60
20610;DHT22;10463;52.378;9.688;2023-03-01T01:58:17;21.60;21.60
20610;DHT22;10463;52.378;9.688;2023-03-01T02:01:03;21.60;21.50
20610;DHT22;10463;52.378;9.688;2023-03-01T02:03:32;21.60;21.50
20610;DHT22;10463;52.378;9.688;2023-03-01T02:06:07;21.60;21.50
20610;DHT22;10463;52.378;9.688;2023-03-01T02:08:40;21.60;21.50
20610;DHT22;10463;52.378;9.688;2023-03-01T02:11:10;21.60;21.60
20610;DHT22;10463;52.378;9.688;2023-03-01T02:13:38;21.60;21.50
20610;DHT22;10463;52.378;9.688;2023-03-01T02:16:07;21.60;21.50
20610;DHT22;10463;52.378;9.688;2023-03-01T02:18:34;21.60;21.50
20610;DHT22;10463;52.378;9.688;2023-03-01T02:21:15;21.60;21.50
20610;DHT22;10463;52.378;9.688;2023-03-01T02:24:10;21.60;21.50
20610;DHT22;10463;52.378;9.688;2023-03-01T02:26:59;21.60;21.50
20610;DHT22;10463;52.378;9.688;2023-03-01T02:29:46;21.60;21.50
20610;DHT22;10463;52.378;9.688;2023-03-01T02:32:31;21.60;21.50
20610;DHT22;10463;52.378;9.688;2023-03-01T02:35:17;21.60;21.50
20610;DHT22;10463;52.378;9.688;2023-03-01T02:38:06;21.60;21.50
20610;DHT22;10463;52.378;9.688;2023-03-01T02:40:53;21.60;21.50
20610;DHT22;10463;52.378;9.688;2023-03-01T02:43:39;21.60;21.50
20610;DHT22;10463;52.378;9.688;2023-03-01T02:46:26;21.60;21.50
20610;DHT22;10463;52.378;9.688;2023-03-01T02:49:25;21.60;21.50
20610;DHT22;10463;52.378;9.688;2023-03-01T02:52:35;21.60;21.40
20610;DHT22;10463;52.378;9.688;2023-03-01T02:55:25;21.60;21.50
20610;DHT22;10463;52.378;9.688;2023-03-01T02:58:09;21.60;21.40
20610;DHT22;10463;52.378;9.688;2023-03-01T03:00:55;21.50;21.40
20610;DHT22;10463;52.378;9.688;2023-03-01T03:03:42;21.50;21.40
20610;DHT22;10463;52.378;9.688;2023-03-01T03:06:27;21.50;21.40
20610;DHT22;10463;52.378;9.688;2023-03-01T03:09:13;21.50;21.40
20610;DHT22;10463;52.378;9.688;2023-03-01T03:11:58;21.50;21.40
20610;DHT22;10463;52.378;9.688;2023-03-01T03:14:44;21.50;21.40
20610;DHT22;10463;52.378;9.688;2023-03-01T03:17:28;21.50;21.40
20610;DHT22;10463;52.378;9.688;2023-03-01T03:20:16;21.50;21.40
20610;DHT22;10463;52.378;9.688;2023-03-01T03:23:05;21.50;21.30
20610;DHT22;10463;52.378;9.688;2023-03-01T03:25:51;21.50;21.40
20610;DHT22;10463;52.378;9.688;2023-03-01T03:28:35;21.40;21.30
20610;DHT22;10463;52.378;9.688;2023-03-01T03:31:24;21.40;21.30
20610;DHT22;10463;52.378;9.688;2023-03-01T03:34:09;21.40;21.30
20610;DHT22;10463;52.378;9.688;2023-03-01T03:37:03;21.40;21.30
20610;DHT22;10463;52.378;9.688;2023-03-01T03:40:10;21.40;21.30
20610;DHT22;10463;52.378;9.688;2023-03-01T03:42:59;21.40;21.30
20610;DHT22;10463;52.378;9.688;2023-03-01T03:45:45;21.40;21.30
20610;DHT22;10463;52.378;9.688;2023-03-01T03:48:30;21.40;21.30
20610;DHT22;10463;52.378;9.688;2023-03-01T03:51:17;21.40;21.30
20610;DHT22;10463;52.378;9.688;2023-03-01T03:54:03;21.40;21.30
20610;DHT22;10463;52.378;9.688;2023-03-01T03:56:48;21.30;21.80
20610;DHT22;10463;52.378;9.688;2023-03-01T03:59:33;21.30;21.30
20610;DHT22;10463;52.378;9.688;2023-03-01T04:02:18;21.30;21.30
20610;DHT22;10463;52.378;9.688;2023-03-01T04:05:08;21.30;21.30
20610;DHT22;10463;52.378;9.688;2023-03-01T04:07:53;21.30;21.30
20610;DHT22;10463;52.378;9.688;2023-03-01T04:10:49;21.30;21.30
20610;DHT22;10463;52.378;9.688;2023-03-01T04:13:34;21.30;21.30
20610;DHT22;10463;52.378;9.688;2023-03-01T04:16:19;21.30;21.30
20610;DHT22;10463;52.378;9.688;2023-03-01T04:19:04;21.20;21.20
20610;DHT22;10463;52.378;9.688;2023-03-01T04:21:50;21.20;21.20
20610;DHT22;10463;52.378;9.688;2023-03-01T04:24:35;21.20;21.20
20610;DHT22;10463;52.378;9.688;2023-03-01T04:27:21;21.20;21.20
20610;DHT22;10463;52.378;9.688;2023-03-01T04:30:11;21.20;21.20
20610;DHT22;10463;52.378;9.688;2023-03-01T04:32:56;21.20;21.20
20610;DHT22;10463;52.378;9.688;2023-03-01T04:35:40;21.20;21.20
20610;DHT22;10463;52.378;9.688;2023-03-01T04:38:25;21.20;21.20
20610;DHT22;10463;52.378;9.688;2023-03-01T04:41:10;21.20;21.20
20610;DHT22;10463;52.378;9.688;2023-03-01T04:43:57;21.20;21.20
20610;DHT22;10463;52.378;9.688;2023-03-01T04:46:44;21.20;21.20
20610;DHT22;10463;52.378;9.688;2023-03-01T04:49:29;21.20;21.30
20610;DHT22;10463;52.378;9.688;2023-03-01T04:52:13;21.10;21.20
20610;DHT22;10463;52.378;9.688;2023-03-01T04:54:58;21.10;21.20
20610;DHT22;10463;52.378;9.688;2023-03-01T04:57:43;21.10;21.20
20610;DHT22;10463;52.378;9.688;2023-03-01T05:00:29;21.10;21.20
20610;DHT22;10463;52.378;9.688;2023-03-01T05:03:14;21.10;21.20
20610;DHT22;10463;52.378;9.688;2023-03-01T05:06:02;21.10;21.20
20610;DHT22;10463;52.378;9.688;2023-03-01T05:08:47;21.10;21.20
20610;DHT22;10463;52.378;9.688;2023-03-01T05:11:32;21.10;21.20
20610;DHT22;10463;52.378;9.688;2023-03-01T05:14:20;21.10;21.20
20610;DHT22;10463;52.378;9.688;2023-03-01T05:17:06;21.00;21.20
20610;DHT22;10463;52.378;9.688;2023-03-01T05:19:51;21.00;21.20
20610;DHT22;10463;52.378;9.688;2023-03-01T05:22:36;21.00;21.10
20610;DHT22;10463;52.378;9.688;2023-03-01T05:25:21;21.00;21.20
20610;DHT22;10463;52.378;9.688;2023-03-01T05:28:07;21.00;21.20
20610;DHT22;10463;52.378;9.688;2023-03-01T05:30:55;21.00;21.20
20610;DHT22;10463;52.378;9.688;2023-03-01T05:33:41;21.00;21.20
20610;DHT22;10463;52.378;9.688;2023-03-01T05:36:26;21.00;21.20
20610;DHT22;10463;52.378;9.688;2023-03-01T05:39:11;21.00;21.20
20610;DHT22;10463;52.378;9.688;2023-03-01T05:41:58;21.00;21.20
20610;DHT22;10463;52.378;9.688;2023-03-01T05:44:44;21.00;21.20
20610;DHT22;10463;52.378;9.688;2023-03-01T05:47:29;20.90;21.10
20610;DHT22;10463;52.378;9.688;2023-03-01T05:50:19;20.90;21.20
20610;DHT22;10463;52.378;9.688;2023-03-01T05:53:07;20.90;21.10
20610;DHT22;10463;52.378;9.688;2023-03-01T05:55:52;20.90;21.10
20610;DHT22;10463;52.378;9.688;2023-03-01T05:58:37;20.90;21.20
20610;DHT22;10463;52.378;9.688;2023-03-01T06:01:23;20.90;21.10
20610;DHT22;10463;52.378;9.688;2023-03-01T06:04:07;20.90;21.10
20610;DHT22;10463;52.378;9.688;2023-03-01T06:06:53;20.90;21.20
20610;DHT22;10463;52.378;9.688;2023-03-01T06:09:38;20.90;21.10
20610;DHT22;10463;52.378;9.688;2023-03-01T06:12:22;20.90;21.10
20610;DHT22;10463;52.378;9.688;2023-03-01T06:15:09;20.90;21.20
20610;DHT22;10463;52.378;9.688;2023-03-01T06:17:55;20.80;21.10
20610;DHT22;10463;52.378;9.688;2023-03-01T06:20:52;20.80;21.10
20610;DHT22;10463;52.378;9.688;2023-03-01T06:23:39;20.80;21.10
20610;DHT22;10463;52.378;9.688;2023-03-01T06:26:24;20.80;21.10
20610;DHT22;10463;52.378;9.688;2023-03-01T06:29:09;20.80;21.10
20610;DHT22;10463;52.378;9.688;2023-03-01T06:31:54;20.80;21.10
20610;DHT22;10463;52.378;9.688;2023-03-01T06:34:38;20.80;21.10
20610;DHT22;10463;52.378;9.688;2023-03-01T06:37:23;20.80;21.10
20610;DHT22;10463;52.378;9.688;2023-03-01T06:40:11;20.80;21.10
20610;DHT22;10463;52.378;9.688;2023-03-01T06:42:56;20.80;21.20
20610;DHT22;10463;52.378;9.688;2023-03-01T06:45:41;20.80;21.10
20610;DHT22;10463;52.378;9.688;2023-03-01T06:48:27;20.80;21.10
20610;DHT22;10463;52.378;9.688;2023-03-01T06:51:12;20.80;21.10
20610;DHT22;10463;52.378;9.688;2023-03-01T06:53:57;20.70;21.10
20610;DHT22;10463;52.378;9.688;2023-03-01T06:56:44;20.70;21.10
20610;DHT22;10463;52.378;9.688;2023-03-01T06:59:30;20.70;21.10
20610;DHT22;10463;52.378;9.688;2023-03-01T07:02:16;20.70;21.10
20610;DHT22;10463;52.378;9.688;2023-03-01T07:05:01;20.70;21.10
20610;DHT22;10463;52.378;9.688;2023-03-01T07:07:46;20.70;21.10
20610;DHT22;10463;52.378;9.688;2023-03-01T07:10:31;20.70;21.10
20610;DHT22;10463;52.378;9.688;2023-03-01T07:13:17;20.70;21.10
20610;DHT22;10463;52.378;9.688;2023-03-01T07:16:02;20.70;21.10
20610;DHT22;10463;52.378;9.688;2023-03-01T07:18:46;20.70;21.10
20610;DHT22;10463;52.378;9.688;2023-03-01T07:21:31;20.70;21.10
20610;DHT22;10463;52.378;9.688;2023-03-01T07:24:16;20.70;21.10
20610;DHT22;10463;52.378;9.688;2023-03-01T07:27:01;20.70;21.10
20610;DHT22;10463;52.378;9.688;2023-03-01T07:29:47;20.70;21.10
20610;DHT22;10463;52.378;9.688;2023-03-01T07:32:32;20.70;21.10
20610;DHT22;10463;52.378;9.688;2023-03-01T07:35:16;20.70;21.10
20610;DHT22;10463;52.378;9.688;2023-03-01T07:38:01;20.70;21.10
20610;DHT22;10463;52.378;9.688;2023-03-01T07:40:45;20.70;21.10
20610;DHT22;10463;52.378;9.688;2023-03-01T07:43:33;20.60;21.00
20610;DHT22;10463;52.378;9.688;2023-03-01T07:46:20;20.70;21.10
20610;DHT22;10463;52.378;9.688;2023-03-01T07:49:05;20.60;21.00
20610;DHT22;10463;52.378;9.688;2023-03-01T07:51:50;20.60;21.00
20610;DHT22;10463;52.378;9.688;2023-03-01T07:54:34;20.60;21.00
20610;DHT22;10463;52.378;9.688;2023-03-01T07:57:20;20.60;21.10
20610;DHT22;10463;52.378;9.688;2023-03-01T08:00:06;20.70;21.20
20610;DHT22;10463;52.378;9.688;2023-03-01T08:03:01;20.70;21.20
20610;DHT22;10463;52.378;9.688;2023-03-01T08:05:46;20.70;21.20
20610;DHT22;10463;52.378;9.688;2023-03-01T08:08:32;20.70;21.20
20610;DHT22;10463;52.378;9.688;2023-03-01T08:11:17;20.60;21.10
20610;DHT22;10463;52.378;9.688;2023-03-01T08:14:01;20.70;21.20
20610;DHT22;10463;52.378;9.688;2023-03-01T08:16:49;20.60;21.10
20610;DHT22;10463;52.378;9.688;2023-03-01T08:19:36;20.60;21.20
20610;DHT22;10463;52.378;9.688;2023-03-01T08:22:20;20.70;21.20
20610;DHT22;10463;52.378;9.688;2023-03-01T08:25:05;20.60;21.10
20610;DHT22;10463;52.378;9.688;2023-03-01T08:27:50;20.60;21.20
20610;DHT22;10463;52.378;9.688;2023-03-01T08:30:35;20.60;21.20
20610;DHT22;10463;52.378;9.688;2023-03-01T08:33:20;20.60;21.20
20610;DHT22;10463;52.378;9.688;2023-03-01T08:36:07;20.60;21.20
20610;DHT22;10463;52.378;9.688;2023-03-01T08:38:52;20.70;21.30
20610;DHT22;10463;52.378;9.688;2023-03-01T08:41:37;20.70;21.30
20610;DHT22;10463;52.378;9.688;2023-03-01T08:44:22;20.70;21.30
20610;DHT22;10463;52.378;9.688;2023-03-01T08:47:07;20.70;21.30
20610;DHT22;10463;52.378;9.688;2023-03-01T08:49:52;20.70;21.30
20610;DHT22;10463;52.378;9.688;2023-03-01T08:52:39;20.70;21.30
20610;DHT22;10463;52.378;9.688;2023-03-01T08:55:24;20.70;21.30
20610;DHT22;10463;52.378;9.688;2023-03-01T08:58:09;20.70;21.30
20610;DHT22;10463;52.378;9.688;2023-03-01T09:00:53;20.70;21.30
20610;DHT22;10463;52.378;9.688;2023-03-01T09:03:38;20.70;21.30
20610;DHT22;10463;52.378;9.688;2023-03-01T09:06:22;20.80;21.40
20610;DHT22;10463;52.378;9.688;2023-03-01T09:09:14;20.70;21.30
20610;DHT22;10463;52.378;9.688;2023-03-01T09:12:01;20.70;21.30
20610;DHT22;10463;52.378;9.688;2023-03-01T09:14:46;20.70;21.40
20610;DHT22;10463;52.378;9.688;2023-03-01T09:17:31;20.80;21.40
20610;DHT22;10463;52.378;9.688;2023-03-01T09:20:16;20.80;21.40
20610;DHT22;10463;52.378;9.688;2023-03-01T09:23:01;20.80;21.40
20610;DHT22;10463;52.378;9.688;2023-03-01T09:25:47;20.80;21.40
20610;DHT22;10463;52.378;9.688;2023-03-01T09:28:32;20.80;21.40
20610;DHT22;10463;52.378;9.688;2023-03-01T09:31:21;20.80;21.40
20610;DHT22;10463;52.378;9.688;2023-03-01T09:34:07;20.80;21.40
20610;DHT22;10463;52.378;9.688;2023-03-01T09:36:52;20.80;21.40
20610;DHT22;10463;52.378;9.688;2023-03-01T09:39:37;20.80;21.50
20610;DHT22;10463;52.378;9.688;2023-03-01T09:42:24;20.90;21.50
20610;DHT22;10463;52.378;9.688;2023-03-01T09:45:18;20.90;21.60
20610;DHT22;10463;52.378;9.688;2023-03-01T09:48:08;20.90;21.60
20610;DHT22;10463;52.378;9.688;2023-03-01T09:50:57;20.90;21.60
20610;DHT22;10463;52.378;9.688;2023-03-01T09:53:42;20.90;21.60
20610;DHT22;10463;52.378;9.688;2023-03-01T09:56:32;20.90;21.60
20610;DHT22;10463;52.378;9.688;2023-03-01T09:59:23;21.00;21.70
20610;DHT22;10463;52.378;9.688;2023-03-01T10:02:26;21.00;21.70
20610;DHT22;10463;52.378;9.688;2023-03-01T10:05:27;21.00;21.70
20610;DHT22;10463;52.378;9.688;2023-03-01T10:08:28;21.00;21.70
20610;DHT22;10463;52.378;9.688;2023-03-01T10:11:22;21.00;21.70
20610;DHT22;10463;52.378;9.688;2023-03-01T10:14:34;21.00;21.70
20610;DHT22;10463;52.378;9.688;2023-03-01T10:17:28;21.00;21.70
20610;DHT22;10463;52.378;9.688;2023-03-01T10:20:20;21.10;21.80
20610;DHT22;10463;52.378;9.688;2023-03-01T10:23:05;21.10;21.80
20610;DHT22;10463;52.378;9.688;2023-03-01T10:26:09;21.10;21.80
20610;DHT22;10463;52.378;9.688;2023-03-01T10:29:02;21.10;21.80
20610;DHT22;10463;52.378;9.688;2023-03-01T10:31:51;21.20;21.90
20610;DHT22;10463;52.378;9.688;2023-03-01T10:34:36;21.20;21.90
20610;DHT22;10463;52.378;9.688;2023-03-01T10:37:21;21.20;21.90
20610;DHT22;10463;52.378;9.688;2023-03-01T10:40:10;21.20;21.90
20610;DHT22;10463;52.378;9.688;2023-03-01T10:42:59;21.30;22.00
20610;DHT22;10463;52.378;9.688;2023-03-01T10:45:45;21.30;22.00
20610;DHT22;10463;52.378;9.688;2023-03-01T10:48:32;21.30;22.00
20610;DHT22;10463;52.378;9.688;2023-03-01T10:51:18;21.30;22.00
20610;DHT22;10463;52.378;9.688;2023-03-01T10:54:06;21.30;22.00
20610;DHT22;10463;52.378;9.688;2023-03-01T10:57:01;21.40;22.00
20610;DHT22;10463;52.378;9.688;2023-03-01T11:00:03;21.40;22.00
20610;DHT22;10463;52.378;9.688;2023-03-01T11:03:12;21.50;22.00
20610;DHT22;10463;52.378;9.688;2023-03-01T11:06:06;21.50;22.00
20610;DHT22;10463;52.378;9.688;2023-03-01T11:09:15;21.50;22.00
20610;DHT22;10463;52.378;9.688;2023-03-01T11:12:00;21.60;22.00
20610;DHT22;10463;52.378;9.688;2023-03-01T11:14:50;21.60;22.00
20610;DHT22;10463;52.378;9.688;2023-03-01T11:17:35;21.60;22.00
20610;DHT22;10463;52.378;9.688;2023-03-01T11:20:29;21.60;22.00
20610;DHT22;10463;52.378;9.688;2023-03-01T11:23:16;21.70;22.10
20610;DHT22;10463;52.378;9.688;2023-03-01T11:26:07;21.70;22.10
20610;DHT22;10463;52.378;9.688;2023-03-01T11:28:58;21.80;22.20
20610;DHT22;10463;52.378;9.688;2023-03-01T11:31:46;21.80;22.20
20610;DHT22;10463;52.378;9.688;2023-03-01T11:34:40;21.90;22.30
20610;DHT22;10463;52.378;9.688;2023-03-01T11:37:34;21.90;22.30
20610;DHT22;10463;52.378;9.688;2023-03-01T11:40:25;21.90;22.30
20610;DHT22;10463;52.378;9.688;2023-03-01T11:43:18;22.00;22.30
20610;DHT22;10463;52.378;9.688;2023-03-01T11:46:50;22.00;22.20
20610;DHT22;10463;52.378;9.688;2023-03-01T11:50:16;22.10;22.30
20610;DHT22;10463;52.378;9.688;2023-03-01T11:53:27;22.10;22.20
20610;DHT22;10463;52.378;9.688;2023-03-01T11:56:26;22.10;22.20
20610;DHT22;10463;52.378;9.688;2023-03-01T11:59:54;22.20;22.30
20610;DHT22;10463;52.378;9.688;2023-03-01T12:06:17;22.20;22.30
20610;DHT22;10463;52.378;9.688;2023-03-01T12:09:27;22.30;22.40
20610;DHT22;10463;52.378;9.688;2023-03-01T12:12:44;22.30;22.30
20610;DHT22;10463;52.378;9.688;2023-03-01T12:15:59;22.30;22.30
20610;DHT22;10463;52.378;9.688;2023-03-01T12:19:15;22.40;22.30
20610;DHT22;10463;52.378;9.688;2023-03-01T12:22:21;22.40;22.20
20610;DHT22;10463;52.378;9.688;2023-03-01T12:25:27;22.50;22.30
20610;DHT22;10463;52.378;9.688;2023-03-01T12:31:59;22.50;22.20
20610;DHT22;10463;52.378;9.688;2023-03-01T12:35:19;22.60;22.30
20610;DHT22;10463;52.378;9.688;2023-03-01T12:38:18;22.70;22.30
20610;DHT22;10463;52.378;9.688;2023-03-01T12:41:43;22.70;22.30
20610;DHT22;10463;52.378;9.688;2023-03-01T12:44:56;22.70;22.40
20610;DHT22;10463;52.378;9.688;2023-03-01T12:48:02;22.80;22.40
20610;DHT22;10463;52.378;9.688;2023-03-01T12:50:53;22.80;22.40
20610;DHT22;10463;52.378;9.688;2023-03-01T12:53:41;22.90;22.50
20610;DHT22;10463;52.378;9.688;2023-03-01T12:56:32;22.90;22.40
20610;DHT22;10463;52.378;9.688;2023-03-01T12:59:23;23.00;22.40
20610;DHT22;10463;52.378;9.688;2023-03-01T13:02:21;23.00;22.40
20610;DHT22;10463;52.378;9.688;2023-03-01T13:05:25;23.00;22.30
20610;DHT22;10463;52.378;9.688;2023-03-01T13:08:19;23.10;22.40
20610;DHT22;10463;52.378;9.688;2023-03-01T13:11:15;23.10;22.40
20610;DHT22;10463;52.378;9.688;2023-03-01T13:14:45;23.10;22.40
20610;DHT22;10463;52.378;9.688;2023-03-01T13:17:41;23.20;22.50
20610;DHT22;10463;52.378;9.688;2023-03-01T13:20:31;23.20;22.40
20610;DHT22;10463;52.378;9.688;2023-03-01T13:23:27;23.30;22.50
20610;DHT22;10463;52.378;9.688;2023-03-01T13:26:14;23.30;22.50
20610;DHT22;10463;52.378;9.688;2023-03-01T13:29:00;23.30;22.50
20610;DHT22;10463;52.378;9.688;2023-03-01T13:32:00;23.40;22.60
20610;DHT22;10463;52.378;9.688;2023-03-01T13:34:53;23.40;22.50
20610;DHT22;10463;52.378;9.688;2023-03-01T13:37:38;23.40;22.50
20610;DHT22;10463;52.378;9.688;2023-03-01T13:40:58;23.50;22.60
20610;DHT22;10463;52.378;9.688;2023-03-01T13:43:46;23.50;22.50
20610;DHT22;10463;52.378;9.688;2023-03-01T13:46:33;23.60;22.40
20610;DHT22;10463;52.378;9.688;2023-03-01T13:49:25;23.60;22.30
20610;DHT22;10463;52.378;9.688;2023-03-01T13:52:37;23.60;22.30
20610;DHT22;10463;52.378;9.688;2023-03-01T13:55:30;23.70;22.20
20610;DHT22;10463;52.378;9.688;2023-03-01T13:58:22;23.70;22.10
20610;DHT22;10463;52.378;9.688;2023-03-01T14:01:24;23.70;22.00
20610;DHT22;10463;52.378;9.688;2023-03-01T14:04:21;23.70;21.90
20610;DHT22;10463;52.378;9.688;2023-03-01T14:07:12;23.80;21.90
20610;DHT22;10463;52.378;9.688;2023-03-01T14:10:00;23.80;21.80
20610;DHT22;10463;52.378;9.688;2023-03-01T14:12:52;23.80;21.80
20610;DHT22;10463;52.378;9.688;2023-03-01T14:15:43;23.90;21.80
20610;DHT22;10463;52.378;9.688;2023-03-01T14:18:39;23.90;21.70
20610;DHT22;10463;52.378;9.688;2023-03-01T14:21:27;23.90;21.70
20610;DHT22;10463;52.378;9.688;2023-03-01T14:24:20;23.90;21.70
20610;DHT22;10463;52.378;9.688;2023-03-01T14:27:11;24.00;21.80
20610;DHT22;10463;52.378;9.688;2023-03-01T14:29:59;24.00;21.80
20610;DHT22;10463;52.378;9.688;2023-03-01T14:32:53;24.00;21.80
20610;DHT22;10463;52.378;9.688;2023-03-01T14:35:38;24.00;21.80
20610;DHT22;10463;52.378;9.688;2023-03-01T14:38:30;24.00;21.80
20610;DHT22;10463;52.378;9.688;2023-03-01T14:41:18;24.10;21.90
20610;DHT22;10463;52.378;9.688;2023-03-01T14:44:11;24.10;21.90
20610;DHT22;10463;52.378;9.688;2023-03-01T14:46:57;24.10;21.80
20610;DHT22;10463;52.378;9.688;2023-03-01T14:49:43;24.10;21.80
20610;DHT22;10463;52.378;9.688;2023-03-01T14:52:34;24.10;21.70
20610;DHT22;10463;52.378;9.688;2023-03-01T14:55:24;24.10;21.60
20610;DHT22;10463;52.378;9.688;2023-03-01T14:58:14;24.20;21.70
20610;DHT22;10463;52.378;9.688;2023-03-01T15:01:03;24.20;21.70
20610;DHT22;10463;52.378;9.688;2023-03-01T15:03:49;24.20;21.70
20610;DHT22;10463;52.378;9.688;2023-03-01T15:06:35;24.20;21.70
20610;DHT22;10463;52.378;9.688;2023-03-01T15:09:20;24.30;21.80
20610;DHT22;10463;52.378;9.688;2023-03-01T15:12:35;24.30;21.80
20610;DHT22;10463;52.378;9.688;2023-03-01T15:15:36;24.30;21.80
20610;DHT22;10463;52.378;9.688;2023-03-01T15:18:28;24.30;21.80
20610;DHT22;10463;52.378;9.688;2023-03-01T15:21:19;24.30;21.70
20610;DHT22;10463;52.378;9.688;2023-03-01T15:24:16;24.30;21.70
20610;DHT22;10463;52.378;9.688;2023-03-01T15:27:05;24.30;21.60
20610;DHT22;10463;52.378;9.688;2023-03-01T15:29:56;24.40;21.60
20610;DHT22;10463;52.378;9.688;2023-03-01T15:32:41;24.40;21.50
20610;DHT22;10463;52.378;9.688;2023-03-01T15:35:41;24.40;21.50
20610;DHT22;10463;52.378;9.688;2023-03-01T15:38:34;24.40;21.40
20610;DHT22;10463;52.378;9.688;2023-03-01T15:41:25;24.40;21.40
20610;DHT22;10463;52.378;9.688;2023-03-01T15:44:25;24.40;21.40
20610;DHT22;10463;52.378;9.688;2023-03-01T15:47:25;24.40;21.30
20610;DHT22;10463;52.378;9.688;2023-03-01T15:50:18;24.40;21.30
20610;DHT22;10463;52.378;9.688;2023-03-01T15:53:10;24.50;21.30
20610;DHT22;10463;52.378;9.688;2023-03-01T15:55:55;24.50;21.40
20610;DHT22;10463;52.378;9.688;2023-03-01T15:58:40;24.50;21.30
20610;DHT22;10463;52.378;9.688;2023-03-01T16:01:26;24.50;21.30
20610;DHT22;10463;52.378;9.688;2023-03-01T16:04:12;24.50;21.30
20610;DHT22;10463;52.378;9.688;2023-03-01T16:07:01;24.50;21.30
20610;DHT22;10463;52.378;9.688;2023-03-01T16:09:47;24.50;21.30
20610;DHT22;10463;52.378;9.688;2023-03-01T16:12:31;24.50;21.20
20610;DHT22;10463;52.378;9.688;2023-03-01T16:15:19;24.50;21.20
20610;DHT22;10463;52.378;9.688;2023-03-01T16:18:04;24.50;21.20
20610;DHT22;10463;52.378;9.688;2023-03-01T16:20:50;24.50;21.10
20610;DHT22;10463;52.378;9.688;2023-03-01T16:23:35;24.50;21.10
20610;DHT22;10463;52.378;9.688;2023-03-01T16:26:21;24.50;21.10
20610;DHT22;10463;52.378;9.688;2023-03-01T16:29:06;24.50;21.00
20610;DHT22;10463;52.378;9.688;2023-03-01T16:31:51;24.50;21.00
20610;DHT22;10463;52.378;9.688;2023-03-01T16:34:35;24.50;21.00
20610;DHT22;10463;52.378;9.688;2023-03-01T16:37:20;24.50;20.90
20610;DHT22;10463;52.378;9.688;2023-03-01T16:40:16;24.40;20.90
20610;DHT22;10463;52.378;9.688;2023-03-01T16:43:03;24.40;20.90
20610;DHT22;10463;52.378;9.688;2023-03-01T16:45:48;24.40;20.90
20610;DHT22;10463;52.378;9.688;2023-03-01T16:48:33;24.40;20.80
20610;DHT22;10463;52.378;9.688;2023-03-01T16:51:19;24.40;20.80
20610;DHT22;10463;52.378;9.688;2023-03-01T16:54:04;24.40;20.80
20610;DHT22;10463;52.378;9.688;2023-03-01T16:56:49;24.40;20.80
20610;DHT22;10463;52.378;9.688;2023-03-01T16:59:35;24.40;20.80
20610;DHT22;10463;52.378;9.688;2023-03-01T17:02:21;24.30;20.70
20610;DHT22;10463;52.378;9.688;2023-03-01T17:05:08;24.30;20.80
20610;DHT22;10463;52.378;9.688;2023-03-01T17:07:54;24.30;20.80
20610;DHT22;10463;52.378;9.688;2023-03-01T17:10:40;24.30;20.80
20610;DHT22;10463;52.378;9.688;2023-03-01T17:13:26;24.30;20.80
20610;DHT22;10463;52.378;9.688;2023-03-01T17:16:15;24.30;20.80
20610;DHT22;10463;52.378;9.688;2023-03-01T17:19:00;24.20;20.70
20610;DHT22;10463;52.378;9.688;2023-03-01T17:21:46;24.20;20.80
20610;DHT22;10463;52.378;9.688;2023-03-01T17:24:32;24.20;20.80
20610;DHT22;10463;52.378;9.688;2023-03-01T17:27:17;24.20;20.80
20610;DHT22;10463;52.378;9.688;2023-03-01T17:30:04;24.20;20.80
20610;DHT22;10463;52.378;9.688;2023-03-01T17:32:50;24.10;20.80
20610;DHT22;10463;52.378;9.688;2023-03-01T17:35:39;24.10;20.70
20610;DHT22;10463;52.378;9.688;2023-03-01T17:38:25;24.10;20.70
20610;DHT22;10463;52.378;9.688;2023-03-01T17:41:10;24.10;20.70
20610;DHT22;10463;52.378;9.688;2023-03-01T17:43:55;24.10;20.80
20610;DHT22;10463;52.378;9.688;2023-03-01T17:46:40;24.00;20.70
20610;DHT22;10463;52.378;9.688;2023-03-01T17:49:26;24.00;20.70
20610;DHT22;10463;52.378;9.688;2023-03-01T17:52:11;24.00;20.70
20610;DHT22;10463;52.378;9.688;2023-03-01T17:54:55;24.00;20.70